<?xml version="1.0" encoding="UTF-8" standalone="no" ?>
<gpx xmlns="http://www.topografix.com/GPX/1/1" xmlns:xsi="http://www.w3.org/2001/XMLSchema-instance" xsi:schemaLocation="http://www.topografix.com/GPX/1/1 http://www.topografix.com/GPX/1/1/gpx.xsd" version="1.1" creator="VisuGPX - https://www.visugpx.com">
  <metadata>
    <name>Abries SDR</name>
  </metadata>
  <wpt lat="44.7956" lon="6.92592">
    <ele>1571</ele>
  </wpt>
  <wpt lat="44.80157" lon="6.91439">
    <ele>1954</ele>
  </wpt>
  <wpt lat="44.83212" lon="6.90528">
    <ele>2662</ele>
  </wpt>
  <wpt lat="44.82511" lon="6.94159">
    <ele>1781</ele>
  </wpt>
  <wpt lat="44.82948" lon="6.94087">
    <ele>1813</ele>
  </wpt>
  <wpt lat="44.84948" lon="6.94649">
    <ele>2429</ele>
  </wpt>
  <wpt lat="44.85525" lon="6.93276">
    <ele>2686</ele>
  </wpt>
  <wpt lat="44.86127" lon="6.93145">
    <ele>3092</ele>
  </wpt>
  <wpt lat="44.82511" lon="6.94159">
    <ele>1781</ele>
  </wpt>
  <wpt lat="44.82891" lon="6.9414">
    <ele>1830</ele>
  </wpt>
  <wpt lat="44.83196" lon="7.00679">
    <ele>2614</ele>
  </wpt>
  <wpt lat="44.82511" lon="6.94159">
    <ele>1781</ele>
  </wpt>
  <wpt lat="44.82891" lon="6.9414">
    <ele>1830</ele>
  </wpt>
  <wpt lat="44.83547" lon="6.99793">
    <ele>2522</ele>
  </wpt>
  <wpt lat="44.8385" lon="7.00435">
    <ele>2803</ele>
  </wpt>
  <wpt lat="44.82511" lon="6.94159">
    <ele>1781</ele>
  </wpt>
  <wpt lat="44.82891" lon="6.9414">
    <ele>1830</ele>
  </wpt>
  <wpt lat="44.83547" lon="6.99793">
    <ele>2522</ele>
  </wpt>
  <wpt lat="44.84093" lon="6.99998">
    <ele>2874</ele>
  </wpt>
  <wpt lat="44.7956" lon="6.92592">
    <ele>1571</ele>
  </wpt>
  <wpt lat="44.80157" lon="6.91439">
    <ele>1954</ele>
  </wpt>
  <wpt lat="44.82414" lon="6.89209">
    <ele>2344</ele>
  </wpt>
  <wpt lat="44.8303" lon="6.89297">
    <ele>2399</ele>
  </wpt>
  <wpt lat="44.84389" lon="6.90492">
    <ele>2877</ele>
  </wpt>
  <wpt lat="44.81581" lon="6.9467">
    <ele>1710</ele>
  </wpt>
  <wpt lat="44.81329" lon="6.9528">
    <ele>1751</ele>
  </wpt>
  <wpt lat="44.81245" lon="6.95835">
    <ele>1809</ele>
  </wpt>
  <wpt lat="44.81389" lon="6.98449">
    <ele>1950</ele>
  </wpt>
  <wpt lat="44.82375" lon="7.0068">
    <ele>2520</ele>
  </wpt>
  <wpt lat="44.83084" lon="7.01088">
    <ele>2566</ele>
  </wpt>
  <wpt lat="44.82583" lon="7.01892">
    <ele>2661</ele>
  </wpt>
  <wpt lat="44.76756" lon="6.94934">
    <ele>1736</ele>
  </wpt>
  <wpt lat="44.75506" lon="6.93974">
    <ele>1924</ele>
  </wpt>
  <wpt lat="44.75201" lon="6.94055">
    <ele>1962</ele>
  </wpt>
  <wpt lat="44.73659" lon="6.94388">
    <ele>2190</ele>
  </wpt>
  <wpt lat="44.73624" lon="6.96532">
    <ele>2767</ele>
  </wpt>
  <wpt lat="44.7697" lon="6.95353">
    <ele>1725</ele>
  </wpt>
  <wpt lat="44.74148" lon="6.96408">
    <ele>2781</ele>
  </wpt>
  <wpt lat="44.76756" lon="6.94934">
    <ele>1736</ele>
  </wpt>
  <wpt lat="44.75506" lon="6.93974">
    <ele>1924</ele>
  </wpt>
  <wpt lat="44.75201" lon="6.94055">
    <ele>1962</ele>
  </wpt>
  <wpt lat="44.73659" lon="6.94388">
    <ele>2190</ele>
  </wpt>
  <wpt lat="44.72698" lon="6.95272">
    <ele>2313</ele>
  </wpt>
  <wpt lat="44.7211" lon="6.96043">
    <ele>2520</ele>
  </wpt>
  <wpt lat="44.71625" lon="6.96239">
    <ele>2702</ele>
  </wpt>
  <wpt lat="44.71473" lon="6.96795">
    <ele>2765</ele>
  </wpt>
  <wpt lat="44.71082" lon="6.96665">
    <ele>2885</ele>
  </wpt>
  <trk>
    <name><![CDATA[Collette de Gilly]]></name>
    <extensions>
      <line xmlns="http://www.topografix.com/GPX/gpx_style/0/2">
        <color>880000</color>
        <width>4</width>
          <extensions>
            <sens>1</sens>
          </extensions>
      </line>
    </extensions>
    <trkseg>
      <trkpt lat="44.81249" lon="6.95642">
        <ele>1802.6</ele>
        <time>2023-03-10T09:24:57Z</time>
      </trkpt>
      <trkpt lat="44.81268" lon="6.95738">
        <ele>1815.5</ele>
        <time>2023-03-10T09:26:08Z</time>
      </trkpt>
      <trkpt lat="44.8126" lon="6.95756">
        <ele>1812.5</ele>
        <time>2023-03-10T09:26:21Z</time>
      </trkpt>
      <trkpt lat="44.81258" lon="6.95767">
        <ele>1812.4</ele>
        <time>2023-03-10T09:26:29Z</time>
      </trkpt>
      <trkpt lat="44.81258" lon="6.958">
        <ele>1815.7</ele>
        <time>2023-03-10T09:26:56Z</time>
      </trkpt>
      <trkpt lat="44.81256" lon="6.95809">
        <ele>1815.6</ele>
        <time>2023-03-10T09:27:08Z</time>
      </trkpt>
      <trkpt lat="44.81263" lon="6.95815">
        <ele>1819.9</ele>
        <time>2023-03-10T09:31:05Z</time>
      </trkpt>
      <trkpt lat="44.81257" lon="6.95827">
        <ele>1817.9</ele>
        <time>2023-03-10T09:31:13Z</time>
      </trkpt>
      <trkpt lat="44.81245" lon="6.95887">
        <ele>1819.4</ele>
        <time>2023-03-10T09:32:03Z</time>
      </trkpt>
      <trkpt lat="44.8124" lon="6.95907">
        <ele>1820.2</ele>
        <time>2023-03-10T09:32:16Z</time>
      </trkpt>
      <trkpt lat="44.81183" lon="6.96086">
        <ele>1836.4</ele>
        <time>2023-03-10T09:35:13Z</time>
      </trkpt>
      <trkpt lat="44.81184" lon="6.96106">
        <ele>1836.8</ele>
        <time>2023-03-10T09:35:29Z</time>
      </trkpt>
      <trkpt lat="44.81199" lon="6.96176">
        <ele>1842.2</ele>
        <time>2023-03-10T09:36:31Z</time>
      </trkpt>
      <trkpt lat="44.81186" lon="6.9621">
        <ele>1841.8</ele>
        <time>2023-03-10T09:37:01Z</time>
      </trkpt>
      <trkpt lat="44.81161" lon="6.96292">
        <ele>1844</ele>
        <time>2023-03-10T09:38:11Z</time>
      </trkpt>
      <trkpt lat="44.81157" lon="6.96347">
        <ele>1846</ele>
        <time>2023-03-10T09:39:11Z</time>
      </trkpt>
      <trkpt lat="44.81174" lon="6.9656">
        <ele>1848.8</ele>
        <time>2023-03-10T09:41:46Z</time>
      </trkpt>
      <trkpt lat="44.81189" lon="6.96645">
        <ele>1850</ele>
        <time>2023-03-10T09:42:56Z</time>
      </trkpt>
      <trkpt lat="44.81202" lon="6.9671">
        <ele>1851.3</ele>
        <time>2023-03-10T09:44:07Z</time>
      </trkpt>
      <trkpt lat="44.81198" lon="6.9672">
        <ele>1850.6</ele>
        <time>2023-03-10T09:44:41Z</time>
      </trkpt>
      <trkpt lat="44.81177" lon="6.96726">
        <ele>1849.5</ele>
        <time>2023-03-10T09:45:00Z</time>
      </trkpt>
      <trkpt lat="44.81137" lon="6.96838">
        <ele>1856.3</ele>
        <time>2023-03-10T09:49:13Z</time>
      </trkpt>
      <trkpt lat="44.81088" lon="6.96836">
        <ele>1862.4</ele>
        <time>2023-03-10T09:50:35Z</time>
      </trkpt>
      <trkpt lat="44.81081" lon="6.96834">
        <ele>1863.1</ele>
        <time>2023-03-10T09:50:47Z</time>
      </trkpt>
      <trkpt lat="44.81048" lon="6.96862">
        <ele>1864.8</ele>
        <time>2023-03-10T09:51:52Z</time>
      </trkpt>
      <trkpt lat="44.81024" lon="6.96881">
        <ele>1867.4</ele>
        <time>2023-03-10T09:52:32Z</time>
      </trkpt>
      <trkpt lat="44.81004" lon="6.96899">
        <ele>1869.6</ele>
        <time>2023-03-10T09:53:12Z</time>
      </trkpt>
      <trkpt lat="44.80982" lon="6.96915">
        <ele>1873.2</ele>
        <time>2023-03-10T09:54:14Z</time>
      </trkpt>
      <trkpt lat="44.80948" lon="6.96883">
        <ele>1881.8</ele>
        <time>2023-03-10T09:56:17Z</time>
      </trkpt>
      <trkpt lat="44.80946" lon="6.96877">
        <ele>1882.4</ele>
        <time>2023-03-10T09:56:36Z</time>
      </trkpt>
      <trkpt lat="44.8092" lon="6.9686">
        <ele>1893.5</ele>
        <time>2023-03-10T09:57:53Z</time>
      </trkpt>
      <trkpt lat="44.80883" lon="6.96862">
        <ele>1908.7</ele>
        <time>2023-03-10T10:00:02Z</time>
      </trkpt>
      <trkpt lat="44.80872" lon="6.96873">
        <ele>1915</ele>
        <time>2023-03-10T10:00:30Z</time>
      </trkpt>
      <trkpt lat="44.80858" lon="6.96861">
        <ele>1919.3</ele>
        <time>2023-03-10T10:01:12Z</time>
      </trkpt>
      <trkpt lat="44.80856" lon="6.96876">
        <ele>1922.4</ele>
        <time>2023-03-10T10:01:50Z</time>
      </trkpt>
      <trkpt lat="44.80849" lon="6.96868">
        <ele>1924.2</ele>
        <time>2023-03-10T10:02:17Z</time>
      </trkpt>
      <trkpt lat="44.80844" lon="6.9687">
        <ele>1926.7</ele>
        <time>2023-03-10T10:02:40Z</time>
      </trkpt>
      <trkpt lat="44.80832" lon="6.96893">
        <ele>1935.1</ele>
        <time>2023-03-10T10:03:37Z</time>
      </trkpt>
      <trkpt lat="44.80824" lon="6.96889">
        <ele>1937.4</ele>
        <time>2023-03-10T10:03:50Z</time>
      </trkpt>
      <trkpt lat="44.80806" lon="6.96888">
        <ele>1943.7</ele>
        <time>2023-03-10T10:04:47Z</time>
      </trkpt>
      <trkpt lat="44.80724" lon="6.96925">
        <ele>1973.2</ele>
        <time>2023-03-10T10:09:21Z</time>
      </trkpt>
      <trkpt lat="44.80717" lon="6.96932">
        <ele>1974.8</ele>
        <time>2023-03-10T10:09:44Z</time>
      </trkpt>
      <trkpt lat="44.80703" lon="6.96937">
        <ele>1978.3</ele>
        <time>2023-03-10T10:10:10Z</time>
      </trkpt>
      <trkpt lat="44.8069" lon="6.9694">
        <ele>1981.5</ele>
        <time>2023-03-10T10:10:48Z</time>
      </trkpt>
      <trkpt lat="44.80673" lon="6.96945">
        <ele>1985.3</ele>
        <time>2023-03-10T10:15:15Z</time>
      </trkpt>
      <trkpt lat="44.80573" lon="6.96975">
        <ele>2009.1</ele>
        <time>2023-03-10T10:18:33Z</time>
      </trkpt>
      <trkpt lat="44.80519" lon="6.96923">
        <ele>2032.3</ele>
        <time>2023-03-10T10:21:28Z</time>
      </trkpt>
      <trkpt lat="44.80514" lon="6.96923">
        <ele>2033.2</ele>
        <time>2023-03-10T10:21:38Z</time>
      </trkpt>
      <trkpt lat="44.80473" lon="6.96861">
        <ele>2053.9</ele>
        <time>2023-03-10T10:23:49Z</time>
      </trkpt>
      <trkpt lat="44.8044" lon="6.96853">
        <ele>2063.7</ele>
        <time>2023-03-10T10:25:25Z</time>
      </trkpt>
      <trkpt lat="44.80431" lon="6.96831">
        <ele>2070.5</ele>
        <time>2023-03-10T10:25:56Z</time>
      </trkpt>
      <trkpt lat="44.80297" lon="6.96775">
        <ele>2106.3</ele>
        <time>2023-03-10T10:31:03Z</time>
      </trkpt>
      <trkpt lat="44.80274" lon="6.96749">
        <ele>2115.2</ele>
        <time>2023-03-10T10:32:10Z</time>
      </trkpt>
      <trkpt lat="44.80261" lon="6.96741">
        <ele>2120</ele>
        <time>2023-03-10T10:32:45Z</time>
      </trkpt>
      <trkpt lat="44.80251" lon="6.96727">
        <ele>2124.9</ele>
        <time>2023-03-10T10:33:13Z</time>
      </trkpt>
      <trkpt lat="44.80229" lon="6.9673">
        <ele>2129.6</ele>
        <time>2023-03-10T10:34:09Z</time>
      </trkpt>
      <trkpt lat="44.80194" lon="6.96724">
        <ele>2142</ele>
        <time>2023-03-10T10:35:46Z</time>
      </trkpt>
      <trkpt lat="44.80175" lon="6.9672">
        <ele>2148.3</ele>
        <time>2023-03-10T10:36:53Z</time>
      </trkpt>
      <trkpt lat="44.80149" lon="6.96689">
        <ele>2156</ele>
        <time>2023-03-10T10:37:52Z</time>
      </trkpt>
      <trkpt lat="44.80085" lon="6.96648">
        <ele>2169.4</ele>
        <time>2023-03-10T10:40:04Z</time>
      </trkpt>
      <trkpt lat="44.80021" lon="6.9668">
        <ele>2186.3</ele>
        <time>2023-03-10T10:42:33Z</time>
      </trkpt>
      <trkpt lat="44.79956" lon="6.96687">
        <ele>2207.5</ele>
        <time>2023-03-10T10:52:49Z</time>
      </trkpt>
      <trkpt lat="44.79908" lon="6.96675">
        <ele>2224.9</ele>
        <time>2023-03-10T10:54:53Z</time>
      </trkpt>
      <trkpt lat="44.79863" lon="6.96636">
        <ele>2237.5</ele>
        <time>2023-03-10T10:57:50Z</time>
      </trkpt>
      <trkpt lat="44.79846" lon="6.96621">
        <ele>2244.2</ele>
        <time>2023-03-10T10:58:56Z</time>
      </trkpt>
      <trkpt lat="44.79796" lon="6.96606">
        <ele>2253.8</ele>
        <time>2023-03-10T11:00:36Z</time>
      </trkpt>
      <trkpt lat="44.79789" lon="6.96598">
        <ele>2254.3</ele>
        <time>2023-03-10T11:00:54Z</time>
      </trkpt>
      <trkpt lat="44.79786" lon="6.96594">
        <ele>2254.5</ele>
        <time>2023-03-10T11:01:01Z</time>
      </trkpt>
      <trkpt lat="44.79783" lon="6.96589">
        <ele>2254.6</ele>
        <time>2023-03-10T11:01:11Z</time>
      </trkpt>
      <trkpt lat="44.79782" lon="6.96585">
        <ele>2254.6</ele>
        <time>2023-03-10T11:01:43Z</time>
      </trkpt>
      <trkpt lat="44.79759" lon="6.96502">
        <ele>2258.9</ele>
        <time>2023-03-10T11:03:32Z</time>
      </trkpt>
      <trkpt lat="44.7975" lon="6.96462">
        <ele>2264.5</ele>
        <time>2023-03-10T11:04:26Z</time>
      </trkpt>
      <trkpt lat="44.79749" lon="6.96313">
        <ele>2294.4</ele>
        <time>2023-03-10T11:09:08Z</time>
      </trkpt>
      <trkpt lat="44.79745" lon="6.96258">
        <ele>2306.5</ele>
        <time>2023-03-10T11:11:05Z</time>
      </trkpt>
      <trkpt lat="44.79746" lon="6.96245">
        <ele>2309.7</ele>
        <time>2023-03-10T11:11:29Z</time>
      </trkpt>
      <trkpt lat="44.79745" lon="6.96241">
        <ele>2310.9</ele>
        <time>2023-03-10T11:11:35Z</time>
      </trkpt>
      <trkpt lat="44.79753" lon="6.96229">
        <ele>2314.5</ele>
        <time>2023-03-10T11:12:13Z</time>
      </trkpt>
      <trkpt lat="44.79755" lon="6.96227">
        <ele>2314.9</ele>
        <time>2023-03-10T11:12:19Z</time>
      </trkpt>
      <trkpt lat="44.79761" lon="6.96205">
        <ele>2320.4</ele>
        <time>2023-03-10T11:13:05Z</time>
      </trkpt>
      <trkpt lat="44.79762" lon="6.96203">
        <ele>2320.8</ele>
        <time>2023-03-10T11:13:14Z</time>
      </trkpt>
      <trkpt lat="44.79752" lon="6.96157">
        <ele>2331.1</ele>
        <time>2023-03-10T11:15:41Z</time>
      </trkpt>
      <trkpt lat="44.7975" lon="6.96147">
        <ele>2333.2</ele>
        <time>2023-03-10T11:15:54Z</time>
      </trkpt>
      <trkpt lat="44.79727" lon="6.96112">
        <ele>2339.9</ele>
        <time>2023-03-10T11:18:06Z</time>
      </trkpt>
      <trkpt lat="44.79697" lon="6.96159">
        <ele>2337.5</ele>
        <time>2023-03-10T11:19:25Z</time>
      </trkpt>
      <trkpt lat="44.79679" lon="6.9617">
        <ele>2338.2</ele>
        <time>2023-03-10T11:36:18Z</time>
      </trkpt>
      <trkpt lat="44.79703" lon="6.96158">
        <ele>2336.3</ele>
        <time>2023-03-10T11:38:58Z</time>
      </trkpt>
      <trkpt lat="44.79707" lon="6.96153">
        <ele>2336.2</ele>
        <time>2023-03-10T11:39:37Z</time>
      </trkpt>
      <trkpt lat="44.79712" lon="6.96148">
        <ele>2336.1</ele>
        <time>2023-03-10T11:39:43Z</time>
      </trkpt>
      <trkpt lat="44.7973" lon="6.96133">
        <ele>2336.6</ele>
        <time>2023-03-10T11:40:41Z</time>
      </trkpt>
      <trkpt lat="44.79748" lon="6.96146">
        <ele>2333.5</ele>
        <time>2023-03-10T11:41:06Z</time>
      </trkpt>
      <trkpt lat="44.7975" lon="6.96155">
        <ele>2331.5</ele>
        <time>2023-03-10T11:41:11Z</time>
      </trkpt>
      <trkpt lat="44.79752" lon="6.96168">
        <ele>2328.7</ele>
        <time>2023-03-10T11:41:39Z</time>
      </trkpt>
      <trkpt lat="44.79754" lon="6.96175">
        <ele>2327.3</ele>
        <time>2023-03-10T11:41:44Z</time>
      </trkpt>
      <trkpt lat="44.79753" lon="6.96205">
        <ele>2321.1</ele>
        <time>2023-03-10T11:41:59Z</time>
      </trkpt>
      <trkpt lat="44.79752" lon="6.96224">
        <ele>2316.2</ele>
        <time>2023-03-10T11:42:07Z</time>
      </trkpt>
      <trkpt lat="44.79758" lon="6.96306">
        <ele>2295.9</ele>
        <time>2023-03-10T11:42:59Z</time>
      </trkpt>
      <trkpt lat="44.79756" lon="6.96335">
        <ele>2289.4</ele>
        <time>2023-03-10T11:43:09Z</time>
      </trkpt>
      <trkpt lat="44.7976" lon="6.96373">
        <ele>2279.4</ele>
        <time>2023-03-10T11:43:19Z</time>
      </trkpt>
      <trkpt lat="44.79749" lon="6.96446">
        <ele>2266.7</ele>
        <time>2023-03-10T11:44:24Z</time>
      </trkpt>
      <trkpt lat="44.79764" lon="6.96497">
        <ele>2258.9</ele>
        <time>2023-03-10T11:44:36Z</time>
      </trkpt>
      <trkpt lat="44.79756" lon="6.96553">
        <ele>2256.7</ele>
        <time>2023-03-10T11:44:38Z</time>
      </trkpt>
      <trkpt lat="44.79767" lon="6.96561">
        <ele>2255.9</ele>
        <time>2023-03-10T11:44:44Z</time>
      </trkpt>
      <trkpt lat="44.79831" lon="6.96586">
        <ele>2248.3</ele>
        <time>2023-03-10T11:45:33Z</time>
      </trkpt>
      <trkpt lat="44.79846" lon="6.96613">
        <ele>2244.3</ele>
        <time>2023-03-10T11:45:42Z</time>
      </trkpt>
      <trkpt lat="44.79857" lon="6.96621">
        <ele>2240.6</ele>
        <time>2023-03-10T11:46:07Z</time>
      </trkpt>
      <trkpt lat="44.7987" lon="6.96599">
        <ele>2236.8</ele>
        <time>2023-03-10T11:46:10Z</time>
      </trkpt>
      <trkpt lat="44.79873" lon="6.966">
        <ele>2235.6</ele>
        <time>2023-03-10T11:46:12Z</time>
      </trkpt>
      <trkpt lat="44.79879" lon="6.96633">
        <ele>2231.8</ele>
        <time>2023-03-10T11:46:14Z</time>
      </trkpt>
      <trkpt lat="44.79881" lon="6.96636">
        <ele>2231</ele>
        <time>2023-03-10T11:46:15Z</time>
      </trkpt>
      <trkpt lat="44.79906" lon="6.96655">
        <ele>2223</ele>
        <time>2023-03-10T11:46:24Z</time>
      </trkpt>
      <trkpt lat="44.80069" lon="6.96697">
        <ele>2176.3</ele>
        <time>2023-03-10T11:47:09Z</time>
      </trkpt>
      <trkpt lat="44.80074" lon="6.96635">
        <ele>2170.4</ele>
        <time>2023-03-10T11:47:11Z</time>
      </trkpt>
      <trkpt lat="44.80113" lon="6.9665">
        <ele>2164.5</ele>
        <time>2023-03-10T11:47:23Z</time>
      </trkpt>
      <trkpt lat="44.80128" lon="6.9666">
        <ele>2160.7</ele>
        <time>2023-03-10T11:47:52Z</time>
      </trkpt>
      <trkpt lat="44.80137" lon="6.96686">
        <ele>2159.2</ele>
        <time>2023-03-10T11:47:56Z</time>
      </trkpt>
      <trkpt lat="44.80141" lon="6.96692">
        <ele>2158.3</ele>
        <time>2023-03-10T11:47:59Z</time>
      </trkpt>
      <trkpt lat="44.80161" lon="6.96712">
        <ele>2152.6</ele>
        <time>2023-03-10T11:48:01Z</time>
      </trkpt>
      <trkpt lat="44.80193" lon="6.96713">
        <ele>2143.1</ele>
        <time>2023-03-10T11:48:12Z</time>
      </trkpt>
      <trkpt lat="44.80247" lon="6.9673">
        <ele>2125.3</ele>
        <time>2023-03-10T11:48:24Z</time>
      </trkpt>
      <trkpt lat="44.8025" lon="6.96732">
        <ele>2124.2</ele>
        <time>2023-03-10T11:48:25Z</time>
      </trkpt>
      <trkpt lat="44.80255" lon="6.96736">
        <ele>2122.4</ele>
        <time>2023-03-10T11:48:26Z</time>
      </trkpt>
      <trkpt lat="44.80264" lon="6.96737">
        <ele>2120</ele>
        <time>2023-03-10T11:48:28Z</time>
      </trkpt>
      <trkpt lat="44.80299" lon="6.9674">
        <ele>2112.3</ele>
        <time>2023-03-10T11:48:36Z</time>
      </trkpt>
      <trkpt lat="44.8032" lon="6.96748">
        <ele>2106.8</ele>
        <time>2023-03-10T11:48:40Z</time>
      </trkpt>
      <trkpt lat="44.8033" lon="6.96752">
        <ele>2104.2</ele>
        <time>2023-03-10T11:48:42Z</time>
      </trkpt>
      <trkpt lat="44.80355" lon="6.96763">
        <ele>2098.1</ele>
        <time>2023-03-10T11:48:47Z</time>
      </trkpt>
      <trkpt lat="44.80358" lon="6.96765">
        <ele>2097.2</ele>
        <time>2023-03-10T11:48:48Z</time>
      </trkpt>
      <trkpt lat="44.80384" lon="6.96766">
        <ele>2092.9</ele>
        <time>2023-03-10T11:50:51Z</time>
      </trkpt>
      <trkpt lat="44.804" lon="6.96792">
        <ele>2085.1</ele>
        <time>2023-03-10T11:50:57Z</time>
      </trkpt>
      <trkpt lat="44.80425" lon="6.96804">
        <ele>2078.2</ele>
        <time>2023-03-10T11:51:04Z</time>
      </trkpt>
      <trkpt lat="44.80427" lon="6.96832">
        <ele>2071.1</ele>
        <time>2023-03-10T11:51:06Z</time>
      </trkpt>
      <trkpt lat="44.80445" lon="6.96806">
        <ele>2074.7</ele>
        <time>2023-03-10T11:51:09Z</time>
      </trkpt>
      <trkpt lat="44.8045" lon="6.96808">
        <ele>2072.7</ele>
        <time>2023-03-10T11:51:11Z</time>
      </trkpt>
      <trkpt lat="44.80462" lon="6.96805">
        <ele>2070</ele>
        <time>2023-03-10T11:51:15Z</time>
      </trkpt>
      <trkpt lat="44.80464" lon="6.96864">
        <ele>2055.4</ele>
        <time>2023-03-10T11:51:16Z</time>
      </trkpt>
      <trkpt lat="44.80483" lon="6.96805">
        <ele>2064</ele>
        <time>2023-03-10T11:51:19Z</time>
      </trkpt>
      <trkpt lat="44.80489" lon="6.96889">
        <ele>2045</ele>
        <time>2023-03-10T11:51:22Z</time>
      </trkpt>
      <trkpt lat="44.80519" lon="6.96924">
        <ele>2032.1</ele>
        <time>2023-03-10T11:51:30Z</time>
      </trkpt>
      <trkpt lat="44.80608" lon="6.96959">
        <ele>2002.3</ele>
        <time>2023-03-10T11:51:52Z</time>
      </trkpt>
      <trkpt lat="44.80628" lon="6.96945">
        <ele>1998.4</ele>
        <time>2023-03-10T11:51:57Z</time>
      </trkpt>
      <trkpt lat="44.80658" lon="6.96939">
        <ele>1990.3</ele>
        <time>2023-03-10T11:52:04Z</time>
      </trkpt>
      <trkpt lat="44.80666" lon="6.96923">
        <ele>1990.3</ele>
        <time>2023-03-10T11:52:09Z</time>
      </trkpt>
      <trkpt lat="44.80741" lon="6.96915">
        <ele>1968.5</ele>
        <time>2023-03-10T11:54:08Z</time>
      </trkpt>
      <trkpt lat="44.80776" lon="6.96903">
        <ele>1956.1</ele>
        <time>2023-03-10T11:54:37Z</time>
      </trkpt>
      <trkpt lat="44.80785" lon="6.96898">
        <ele>1952.5</ele>
        <time>2023-03-10T11:54:39Z</time>
      </trkpt>
      <trkpt lat="44.80789" lon="6.96899">
        <ele>1951.2</ele>
        <time>2023-03-10T11:54:40Z</time>
      </trkpt>
      <trkpt lat="44.80792" lon="6.96897">
        <ele>1949.9</ele>
        <time>2023-03-10T11:54:41Z</time>
      </trkpt>
      <trkpt lat="44.80849" lon="6.96874">
        <ele>1925.1</ele>
        <time>2023-03-10T11:54:44Z</time>
      </trkpt>
      <trkpt lat="44.80856" lon="6.96876">
        <ele>1922.4</ele>
        <time>2023-03-10T11:55:11Z</time>
      </trkpt>
      <trkpt lat="44.80861" lon="6.96858">
        <ele>1917.7</ele>
        <time>2023-03-10T11:55:13Z</time>
      </trkpt>
      <trkpt lat="44.80864" lon="6.9685">
        <ele>1915.6</ele>
        <time>2023-03-10T11:55:16Z</time>
      </trkpt>
      <trkpt lat="44.80875" lon="6.96877">
        <ele>1914.3</ele>
        <time>2023-03-10T11:55:20Z</time>
      </trkpt>
      <trkpt lat="44.80883" lon="6.96879">
        <ele>1911.1</ele>
        <time>2023-03-10T11:55:44Z</time>
      </trkpt>
      <trkpt lat="44.80901" lon="6.96847">
        <ele>1899.9</ele>
        <time>2023-03-10T11:55:59Z</time>
      </trkpt>
      <trkpt lat="44.80903" lon="6.96889">
        <ele>1902.9</ele>
        <time>2023-03-10T11:56:19Z</time>
      </trkpt>
      <trkpt lat="44.80926" lon="6.96926">
        <ele>1894.1</ele>
        <time>2023-03-10T11:56:29Z</time>
      </trkpt>
      <trkpt lat="44.8098" lon="6.96941">
        <ele>1875.4</ele>
        <time>2023-03-10T11:56:37Z</time>
      </trkpt>
      <trkpt lat="44.80991" lon="6.96915">
        <ele>1871.6</ele>
        <time>2023-03-10T11:56:41Z</time>
      </trkpt>
      <trkpt lat="44.81002" lon="6.96897">
        <ele>1869.8</ele>
        <time>2023-03-10T11:56:46Z</time>
      </trkpt>
      <trkpt lat="44.81026" lon="6.96864">
        <ele>1867.1</ele>
        <time>2023-03-10T11:56:56Z</time>
      </trkpt>
      <trkpt lat="44.8106" lon="6.96839">
        <ele>1864.5</ele>
        <time>2023-03-10T11:57:10Z</time>
      </trkpt>
      <trkpt lat="44.81082" lon="6.96839">
        <ele>1862.9</ele>
        <time>2023-03-10T11:57:17Z</time>
      </trkpt>
      <trkpt lat="44.81106" lon="6.96842">
        <ele>1860.2</ele>
        <time>2023-03-10T11:57:22Z</time>
      </trkpt>
      <trkpt lat="44.81116" lon="6.96842">
        <ele>1859</ele>
        <time>2023-03-10T11:57:24Z</time>
      </trkpt>
      <trkpt lat="44.81155" lon="6.96803">
        <ele>1853.5</ele>
        <time>2023-03-10T11:57:35Z</time>
      </trkpt>
      <trkpt lat="44.81167" lon="6.96727">
        <ele>1849.2</ele>
        <time>2023-03-10T11:57:50Z</time>
      </trkpt>
      <trkpt lat="44.81191" lon="6.96722">
        <ele>1849.9</ele>
        <time>2023-03-10T11:58:03Z</time>
      </trkpt>
      <trkpt lat="44.81204" lon="6.96713">
        <ele>1851.7</ele>
        <time>2023-03-10T11:59:33Z</time>
      </trkpt>
      <trkpt lat="44.81202" lon="6.96692">
        <ele>1851.3</ele>
        <time>2023-03-10T11:59:50Z</time>
      </trkpt>
      <trkpt lat="44.812" lon="6.9668">
        <ele>1851.3</ele>
        <time>2023-03-10T11:59:58Z</time>
      </trkpt>
      <trkpt lat="44.81188" lon="6.9663">
        <ele>1850.5</ele>
        <time>2023-03-10T12:00:34Z</time>
      </trkpt>
      <trkpt lat="44.81159" lon="6.96468">
        <ele>1847</ele>
        <time>2023-03-10T12:02:18Z</time>
      </trkpt>
      <trkpt lat="44.81156" lon="6.96277">
        <ele>1841.5</ele>
        <time>2023-03-10T12:03:50Z</time>
      </trkpt>
      <trkpt lat="44.8119" lon="6.96184">
        <ele>1839.2</ele>
        <time>2023-03-10T12:04:48Z</time>
      </trkpt>
      <trkpt lat="44.81187" lon="6.9613">
        <ele>1836.7</ele>
        <time>2023-03-10T12:05:04Z</time>
      </trkpt>
      <trkpt lat="44.81178" lon="6.96066">
        <ele>1831.3</ele>
        <time>2023-03-10T12:05:20Z</time>
      </trkpt>
      <trkpt lat="44.81192" lon="6.96031">
        <ele>1827.8</ele>
        <time>2023-03-10T12:05:30Z</time>
      </trkpt>
      <trkpt lat="44.81208" lon="6.95997">
        <ele>1825.8</ele>
        <time>2023-03-10T12:05:37Z</time>
      </trkpt>
      <trkpt lat="44.81228" lon="6.95958">
        <ele>1824.8</ele>
        <time>2023-03-10T12:05:44Z</time>
      </trkpt>
      <trkpt lat="44.81256" lon="6.95767">
        <ele>1811.4</ele>
        <time>2023-03-10T12:06:12Z</time>
      </trkpt>
      <trkpt lat="44.81246" lon="6.95666">
        <ele>1801.6</ele>
        <time>2023-03-10T12:06:34Z</time>
      </trkpt>
      <trkpt lat="44.81248" lon="6.95631">
        <ele>1801.3</ele>
        <time>2023-03-10T12:06:57Z</time>
      </trkpt>
      <trkpt lat="44.81291" lon="6.95541">
        <ele>1803</ele>
        <time>2023-03-10T12:08:12Z</time>
      </trkpt>
      <trkpt lat="44.81316" lon="6.95447">
        <ele>1801.6</ele>
        <time>2023-03-10T12:09:14Z</time>
      </trkpt>
      <trkpt lat="44.81319" lon="6.95435">
        <ele>1800.6</ele>
        <time>2023-03-10T12:09:21Z</time>
      </trkpt>
      <trkpt lat="44.81379" lon="6.95353">
        <ele>1801.1</ele>
        <time>2023-03-10T12:10:53Z</time>
      </trkpt>
      <trkpt lat="44.81458" lon="6.95259">
        <ele>1799.3</ele>
        <time>2023-03-10T12:12:41Z</time>
      </trkpt>
      <trkpt lat="44.8147" lon="6.95214">
        <ele>1793.4</ele>
        <time>2023-03-10T12:13:08Z</time>
      </trkpt>
      <trkpt lat="44.81491" lon="6.9519">
        <ele>1792.9</ele>
        <time>2023-03-10T12:13:19Z</time>
      </trkpt>
      <trkpt lat="44.81521" lon="6.95162">
        <ele>1791.2</ele>
        <time>2023-03-10T12:13:27Z</time>
      </trkpt>
      <trkpt lat="44.8153" lon="6.95119">
        <ele>1785.6</ele>
        <time>2023-03-10T12:13:32Z</time>
      </trkpt>
      <trkpt lat="44.81551" lon="6.94994">
        <ele>1778.8</ele>
        <time>2023-03-10T12:13:52Z</time>
      </trkpt>
      <trkpt lat="44.81554" lon="6.94924">
        <ele>1771.1</ele>
        <time>2023-03-10T12:14:07Z</time>
      </trkpt>
      <trkpt lat="44.81583" lon="6.94819">
        <ele>1768.3</ele>
        <time>2023-03-10T12:14:32Z</time>
      </trkpt>
      <trkpt lat="44.81637" lon="6.94725">
        <ele>1761.5</ele>
        <time>2023-03-10T12:14:57Z</time>
      </trkpt>
      <trkpt lat="44.81658" lon="6.94681">
        <ele>1761.1</ele>
        <time>2023-03-10T12:15:33Z</time>
      </trkpt>
      <trkpt lat="44.81727" lon="6.94626">
        <ele>1758.7</ele>
        <time>2023-03-10T12:16:11Z</time>
      </trkpt>
      <trkpt lat="44.81742" lon="6.94615">
        <ele>1758.3</ele>
        <time>2023-03-10T12:16:15Z</time>
      </trkpt>
      <trkpt lat="44.81814" lon="6.94492">
        <ele>1751.9</ele>
        <time>2023-03-10T12:17:45Z</time>
      </trkpt>
      <trkpt lat="44.81934" lon="6.94421">
        <ele>1755.5</ele>
        <time>2023-03-10T12:25:39Z</time>
      </trkpt>
    </trkseg>
  </trk>
</gpx>